Novohrad, Texas
Current Conditions -  °F | °C
As of 12:55 AM on Monday 24 Nov 2014 (Local Time) from KT20 Reporting Station
Clear Clear  
Wind Chill: 60°   Ceiling: Unl
Heat Index: 60°   Visibility: 10mi
Dew Point: 43°   Wind: 9mph
Humidity: 54%   Direction: 360°N
Pressure: 29.83"   Gusts: 20mph
Location:  29.5667°N, 97.0723°W
Report Text: KT20 240655Z AUTO 36008G17KT 10SM CLR 16/06 A2983 RMK AO2 T01560063
Loading
Personal Weather Stations






























Interactive Weather Map New forecast layout! Learn more

10-Day Weather Forecast

Advertisements
Track Severe Weather on mobile